createdAt,value
2018-04-12T00:00:44.139Z,84.44
2018-04-12T00:03:12.396Z,84.51
2018-04-12T00:05:40.701Z,84.56
2018-04-12T00:08:09.778Z,84.40
2018-04-12T00:10:38.031Z,84.47
2018-04-12T00:13:06.332Z,84.76
2018-04-12T00:15:34.584Z,85.17
2018-04-12T00:18:02.835Z,85.73
2018-04-12T00:20:31.064Z,85.94
2018-04-12T00:23:00.671Z,86.05
2018-04-12T00:25:29.672Z,86.21
2018-04-12T00:27:57.985Z,85.65
2018-04-12T00:30:26.227Z,85.72
2018-04-12T00:32:54.482Z,86.14
2018-04-12T00:35:22.717Z,86.44
2018-04-12T00:37:50.978Z,86.46
2018-04-12T00:40:19.216Z,86.60
2018-04-12T00:42:48.253Z,87.16
2018-04-12T00:45:16.496Z,87.67
2018-04-12T00:47:44.747Z,88.18
2018-04-12T00:50:12.982Z,88.40
2018-04-12T00:52:42.019Z,88.44
2018-04-12T00:55:10.252Z,88.12
2018-04-12T00:57:38.497Z,88.03
2018-04-12T01:00:06.740Z,87.89
2018-04-12T01:02:34.985Z,88.03
2018-04-12T01:05:03.216Z,87.53
2018-04-12T01:07:31.467Z,88.01
2018-04-12T01:09:59.737Z,88.53
2018-04-12T01:12:28.009Z,87.98
2018-04-12T01:14:56.255Z,89.06
2018-04-12T01:17:24.598Z,89.59
2018-04-12T01:19:52.826Z,90.00
2018-04-12T01:22:21.090Z,89.82
2018-04-12T01:24:49.313Z,90.26
2018-04-12T01:27:17.583Z,90.73
2018-04-12T01:29:45.833Z,90.58
2018-04-12T01:32:14.846Z,90.71
2018-04-12T01:34:43.083Z,90.74
2018-04-12T01:37:12.123Z,90.86
2018-04-12T01:39:40.361Z,90.94
2018-04-12T01:42:09.385Z,91.15
2018-04-12T01:44:37.628Z,91.18
2018-04-12T01:47:05.911Z,90.79
2018-04-12T01:49:34.139Z,90.93
2018-04-12T01:52:02.979Z,91.30
2018-04-12T01:54:32.007Z,91.52
2018-04-12T01:57:00.243Z,91.19
2018-04-12T01:59:28.508Z,91.10
2018-04-12T02:01:56.785Z,90.95
2018-04-12T02:04:25.038Z,90.88
2018-04-12T02:06:54.038Z,91.10
2018-04-12T02:09:23.090Z,90.57
2018-04-12T02:11:51.350Z,90.36
2018-04-12T02:14:20.374Z,90.61
2018-04-12T02:16:48.640Z,90.78
2018-04-12T02:19:17.642Z,90.90
2018-04-12T02:21:46.658Z,90.73
2018-04-12T02:24:15.684Z,90.94
2018-04-12T02:26:44.042Z,91.47
2018-04-12T02:29:13.284Z,91.93
2018-04-12T02:31:42.905Z,91.43
2018-04-12T02:34:11.165Z,92.03
2018-04-12T02:36:40.145Z,91.85
2018-04-12T02:39:08.396Z,92.17
2018-04-12T02:41:36.634Z,92.18
2018-04-12T02:44:04.891Z,92.80
2018-04-12T02:46:33.142Z,92.97
2018-04-12T02:49:02.167Z,92.73
2018-04-12T02:51:30.408Z,92.86
2018-04-12T02:53:58.646Z,93.41
2018-04-12T02:56:26.877Z,93.83
2018-04-12T02:58:55.135Z,94.29
2018-04-12T03:01:23.356Z,94.20
2018-04-12T03:03:51.607Z,94.17
2018-04-12T03:06:19.833Z,94.04
2018-04-12T03:08:48.093Z,94.13
2018-04-12T03:11:16.331Z,94.20
2018-04-12T03:13:45.374Z,94.02
2018-04-12T03:16:13.631Z,93.81
2018-04-12T03:18:42.648Z,93.94
2018-04-12T03:21:10.896Z,93.96
2018-04-12T03:23:39.128Z,94.54
2018-04-12T03:26:07.393Z,94.32
2018-04-12T03:28:35.623Z,94.03
2018-04-12T03:31:03.872Z,93.87
2018-04-12T03:33:32.110Z,94.10
2018-04-12T03:36:00.371Z,94.86
2018-04-12T03:38:28.610Z,94.98
2018-04-12T03:40:56.868Z,94.43
2018-04-12T03:43:25.113Z,94.31
2018-04-12T03:45:54.119Z,93.89
2018-04-12T03:48:23.128Z,94.44
2018-04-12T03:50:51.391Z,94.36
2018-04-12T03:53:19.632Z,94.66
2018-04-12T03:55:47.889Z,95.12
2018-04-12T03:58:16.133Z,95.28
2018-04-12T04:00:44.401Z,94.86
2018-04-12T04:03:12.651Z,95.21
2018-04-12T04:05:40.891Z,95.11
2018-04-12T04:08:09.130Z,94.83
2018-04-12T04:10:37.367Z,94.67
2018-04-12T04:13:05.599Z,95.11
2018-04-12T04:15:52.296Z,95.06
2018-04-12T04:21:32.235Z,95.55
2018-04-12T04:24:01.299Z,95.58
2018-04-12T04:26:29.567Z,95.61
2018-04-12T04:28:57.801Z,95.50
2018-04-12T04:31:26.039Z,95.51
2018-04-12T04:33:54.286Z,95.65
2018-04-12T04:36:22.538Z,95.90
2018-04-12T04:38:50.767Z,95.10
2018-04-12T04:41:19.779Z,95.30
2018-04-12T04:43:48.793Z,94.96
2018-04-12T04:46:17.901Z,94.28
2018-04-12T04:48:47.104Z,94.02
2018-04-12T04:51:16.133Z,93.66
2018-04-12T04:53:44.407Z,93.87
2018-04-12T04:56:13.465Z,93.67
2018-04-12T04:58:41.699Z,93.58
2018-04-12T05:01:10.720Z,93.60
2018-04-12T05:03:38.958Z,92.97
2018-04-12T05:06:07.191Z,92.97
2018-04-12T05:08:35.422Z,92.43
2018-04-12T05:11:03.676Z,91.98
2018-04-12T05:13:31.929Z,92.13
2018-04-12T05:16:00.179Z,91.69
2018-04-12T05:18:28.441Z,91.89
2018-04-12T05:20:58.029Z,91.94
2018-04-12T05:23:26.273Z,92.08
2018-04-12T05:25:54.536Z,91.67
2018-04-12T05:28:22.771Z,91.24
2018-04-12T05:30:51.039Z,91.22
2018-04-12T05:33:19.276Z,91.54
2018-04-12T05:35:47.538Z,90.66
2018-04-12T05:38:15.788Z,91.09
2018-04-12T05:40:44.038Z,89.33
2018-04-12T05:43:13.781Z,88.92
2018-04-12T05:45:42.038Z,88.80
2018-04-12T05:48:10.307Z,87.97
2018-04-12T05:50:38.546Z,87.08
2018-04-12T05:53:07.574Z,86.66
2018-04-12T05:55:35.804Z,85.95
2018-04-12T05:58:04.078Z,84.60
2018-04-12T06:00:32.303Z,83.71
2018-04-12T06:03:00.566Z,82.40
2018-04-12T06:05:28.800Z,81.86
2018-04-12T06:07:57.078Z,81.56
2018-04-12T06:10:26.078Z,80.59
2018-04-12T06:12:55.103Z,80.38
2018-04-12T06:15:24.100Z,79.30
2018-04-12T06:17:53.142Z,78.21
2018-04-12T06:20:21.390Z,77.34
2018-04-12T06:22:50.471Z,77.45
2018-04-12T06:25:19.471Z,77.23
2018-04-12T06:27:47.751Z,77.64
2018-04-12T06:30:16.055Z,76.55
2018-04-12T06:32:44.328Z,75.28
2018-04-12T06:35:13.353Z,75.43
2018-04-12T06:37:41.639Z,74.07
2018-04-12T06:40:09.895Z,74.56
2018-04-12T06:42:38.165Z,73.68
2018-04-12T06:45:07.175Z,73.16
2018-04-12T06:47:35.501Z,69.64
2018-04-12T06:50:04.510Z,65.63
2018-04-12T06:52:32.796Z,65.07
2018-04-12T06:55:01.043Z,66.94
2018-04-12T06:57:29.318Z,66.38
2018-04-12T06:59:58.423Z,65.19
2018-04-12T07:02:26.685Z,62.99
2018-04-12T07:04:55.020Z,64.86
2018-04-12T07:07:23.264Z,64.96
2018-04-12T07:09:51.531Z,60.49
2018-04-12T07:12:19.759Z,60.50
2018-04-12T07:14:49.519Z,61.23
2018-04-12T07:17:17.773Z,61.32
2018-04-12T07:19:46.022Z,60.01
2018-04-12T07:22:14.280Z,58.83
2018-04-12T07:24:42.565Z,57.13
2018-04-12T07:27:10.823Z,58.37
2018-04-12T07:29:39.863Z,56.82
2018-04-12T07:32:08.113Z,55.97
2018-04-12T07:34:36.406Z,56.07
2018-04-12T07:37:04.676Z,54.27
2018-04-12T07:39:33.696Z,54.82
2018-04-12T07:42:01.953Z,54.29
2018-04-12T07:44:30.223Z,53.72
2018-04-12T07:46:58.478Z,54.52
2018-04-12T07:49:27.511Z,52.76
2018-04-12T07:51:55.767Z,52.69
2018-04-12T07:54:24.028Z,52.03
2018-04-12T07:56:52.345Z,52.69
2018-04-12T07:59:21.524Z,51.31
2018-04-12T08:01:49.763Z,50.36
2018-04-12T08:04:18.787Z,49.03
2018-04-12T08:06:47.041Z,48.54
2018-04-12T08:09:15.312Z,50.22
2018-04-12T08:11:43.582Z,49.50
2018-04-12T08:14:11.863Z,49.26
2018-04-12T08:16:40.099Z,50.35
2018-04-12T08:19:09.127Z,50.89
2018-04-12T08:21:37.394Z,50.72
2018-04-12T08:24:05.667Z,51.50
2018-04-12T08:26:33.915Z,49.38
2018-04-12T08:29:02.161Z,50.15
2018-04-12T08:31:30.422Z,49.68
2018-04-12T08:33:58.672Z,50.02
2018-04-12T08:36:26.933Z,49.78
2018-04-12T08:38:55.944Z,46.72
2018-04-12T08:41:24.996Z,45.26
2018-04-12T08:43:53.238Z,48.27
2018-04-12T08:46:22.268Z,46.20
2018-04-12T08:48:50.516Z,46.70
2018-04-12T08:51:18.782Z,47.25
2018-04-12T08:53:47.038Z,48.30
2018-04-12T08:56:16.051Z,46.86
2018-04-12T08:58:44.300Z,47.59
2018-04-12T09:01:12.571Z,48.60
2018-04-12T09:03:42.282Z,47.48
2018-04-12T09:06:10.546Z,48.52
2018-04-12T09:08:38.780Z,45.40
2018-04-12T09:11:07.056Z,47.08
2018-04-12T09:13:35.295Z,45.44
2018-04-12T09:16:04.336Z,45.03
2018-04-12T09:18:34.098Z,41.77
2018-04-12T09:21:02.347Z,42.71
2018-04-12T09:23:30.598Z,43.41
2018-04-12T09:25:58.862Z,43.14
2018-04-12T09:28:27.091Z,41.76
2018-04-12T09:30:55.693Z,40.91
2018-04-12T09:33:23.923Z,38.90
2018-04-12T09:35:52.183Z,39.54
2018-04-12T09:38:20.435Z,38.01
2018-04-12T09:40:48.677Z,37.70
2018-04-12T09:43:16.934Z,37.37
2018-04-12T09:45:45.192Z,37.88
2018-04-12T09:48:14.198Z,37.50
2018-04-12T09:50:43.219Z,35.95
2018-04-12T09:53:11.474Z,37.16
2018-04-12T09:55:39.726Z,37.41
2018-04-12T09:58:07.993Z,37.18
2018-04-12T10:00:36.218Z,36.07
2018-04-12T10:03:13.004Z,36.25
2018-04-12T10:05:46.658Z,37.19
2018-04-12T10:08:21.134Z,37.83
2018-04-12T10:10:49.373Z,38.84
2018-04-12T10:13:17.629Z,37.44
2018-04-12T10:15:46.670Z,37.57
2018-04-12T10:18:14.911Z,36.60
2018-04-12T10:20:43.171Z,36.81
2018-04-12T10:23:11.434Z,37.51
2018-04-12T10:25:39.674Z,36.45
2018-04-12T10:28:07.919Z,35.38
2018-04-12T10:30:36.940Z,36.16
2018-04-12T10:33:05.994Z,35.97
2018-04-12T10:35:34.269Z,34.21
2018-04-12T10:38:02.515Z,33.83
2018-04-12T10:40:31.519Z,34.87
2018-04-12T10:43:00.538Z,35.03
2018-04-12T10:45:29.555Z,33.78
2018-04-12T10:47:57.811Z,32.20
2018-04-12T10:50:26.044Z,32.71
2018-04-12T10:52:54.311Z,32.58
2018-04-12T10:55:23.314Z,33.31
2018-04-12T10:57:52.347Z,32.38
2018-04-12T11:00:20.613Z,32.77
2018-04-12T11:02:49.615Z,31.28
2018-04-12T11:05:18.659Z,32.86
2018-04-12T11:07:46.911Z,31.97
2018-04-12T11:10:16.993Z,32.27
2018-04-12T11:12:45.280Z,31.26
2018-04-12T11:15:13.550Z,30.74
2018-04-12T11:17:42.707Z,29.77
2018-04-12T11:20:10.980Z,31.12
2018-04-12T11:22:39.221Z,30.21
2018-04-12T11:25:07.529Z,30.60
2018-04-12T11:27:35.760Z,28.04
2018-04-12T11:30:04.025Z,27.46
2018-04-12T11:32:32.271Z,26.50
2018-04-12T11:35:00.559Z,26.64
2018-04-12T11:37:29.557Z,26.85
2018-04-12T11:39:57.819Z,27.15
2018-04-12T11:42:26.079Z,27.02
2018-04-12T11:44:54.326Z,26.62
2018-04-12T11:47:23.348Z,26.88
2018-04-12T11:49:51.631Z,27.37
2018-04-12T11:52:19.846Z,27.45
2018-04-12T11:54:48.898Z,26.30
2018-04-12T11:57:17.148Z,26.39
2018-04-12T11:59:46.597Z,26.45
2018-04-12T12:02:14.856Z,26.74
2018-04-12T12:04:43.216Z,27.11
2018-04-12T12:07:12.233Z,28.35
2018-04-12T12:09:40.502Z,27.77
2018-04-12T12:12:08.748Z,27.50
2018-04-12T12:14:37.019Z,27.67
2018-04-12T12:17:06.049Z,27.56
2018-04-12T12:19:34.288Z,28.58
2018-04-12T12:22:02.533Z,29.07
2018-04-12T12:24:30.806Z,27.52
2018-04-12T12:26:59.059Z,27.09
2018-04-12T12:29:27.331Z,28.17
2018-04-12T12:31:55.580Z,27.47
2018-04-12T12:34:23.860Z,27.12
2018-04-12T12:36:53.120Z,28.04
2018-04-12T12:39:22.147Z,28.17
2018-04-12T12:41:50.413Z,27.70
2018-04-12T12:44:18.751Z,29.10
2018-04-12T12:46:47.009Z,29.40
2018-04-12T12:49:15.262Z,29.27
2018-04-12T12:51:44.295Z,29.05
2018-04-12T12:54:12.560Z,29.12
2018-04-12T12:56:41.592Z,28.60
2018-04-12T12:59:09.836Z,28.22
2018-04-12T13:01:38.858Z,29.48
2018-04-12T13:04:07.095Z,29.87
2018-04-12T13:06:35.360Z,28.58
2018-04-12T13:09:04.362Z,28.95
2018-04-12T13:11:33.484Z,27.41
2018-04-12T13:14:02.480Z,27.73
2018-04-12T13:16:31.511Z,28.30
2018-04-12T13:18:59.754Z,28.15
2018-04-12T13:21:28.779Z,27.93
2018-04-12T13:23:57.780Z,27.21
2018-04-12T13:26:26.816Z,27.47
2018-04-12T13:28:55.041Z,27.19
2018-04-12T13:31:23.317Z,27.80
2018-04-12T13:33:51.569Z,27.96
2018-04-12T13:36:20.611Z,27.65
2018-04-12T13:38:48.860Z,28.58
2018-04-12T13:41:17.899Z,27.94
2018-04-12T13:43:46.182Z,28.80
2018-04-12T13:46:14.457Z,29.03
2018-04-12T13:48:42.746Z,29.12
2018-04-12T13:51:11.016Z,28.62
2018-04-12T13:53:39.280Z,28.34
2018-04-12T13:56:07.865Z,28.26
2018-04-12T13:58:37.589Z,28.08
2018-04-12T14:01:06.028Z,27.88
2018-04-12T14:03:35.177Z,28.42
2018-04-12T14:06:03.678Z,29.26
2018-04-12T14:08:32.030Z,28.67
2018-04-12T14:11:00.706Z,28.90
2018-04-12T14:13:29.967Z,29.80
2018-04-12T14:15:59.093Z,30.65
2018-04-12T14:18:27.742Z,30.94
2018-04-12T14:20:56.682Z,34.02
2018-04-12T14:23:25.105Z,35.56
2018-04-12T14:25:53.499Z,35.24
2018-04-12T14:28:21.971Z,35.16
2018-04-12T14:30:50.341Z,35.51
2018-04-12T14:33:20.332Z,35.78
2018-04-12T14:35:49.657Z,35.70
2018-04-12T14:38:19.435Z,35.71
2018-04-12T14:40:47.711Z,36.08
2018-04-12T14:43:16.032Z,36.00
2018-04-12T14:45:44.568Z,35.52
2018-04-12T14:48:13.027Z,35.64
2018-04-12T14:50:41.516Z,35.03
2018-04-12T14:53:10.319Z,34.20
2018-04-12T14:55:38.632Z,37.47
2018-04-12T14:58:07.723Z,40.32
2018-04-12T15:00:36.144Z,40.84
2018-04-12T15:03:04.671Z,40.54
2018-04-12T15:05:33.986Z,40.79
2018-04-12T15:08:02.348Z,40.94
2018-04-12T15:10:31.527Z,42.01
2018-04-12T15:13:00.385Z,41.98
2018-04-12T15:15:29.824Z,43.03
2018-04-12T15:17:58.565Z,42.61
2018-04-12T15:20:28.149Z,42.02
2018-04-12T15:22:56.498Z,41.33
2018-04-12T15:25:24.806Z,42.02
2018-04-12T15:27:53.189Z,39.63
2018-04-12T15:30:21.503Z,39.31
2018-04-12T15:32:50.006Z,39.67
2018-04-12T15:35:18.473Z,40.11
2018-04-12T15:37:46.760Z,39.58
2018-04-12T15:40:16.030Z,40.89
2018-04-12T15:42:45.122Z,41.08
2018-04-12T15:45:13.379Z,41.26
2018-04-12T15:47:41.895Z,40.73
2018-04-12T15:50:11.089Z,41.32
2018-04-12T15:52:39.667Z,40.28
2018-04-12T15:55:08.246Z,40.01
2018-04-12T15:57:36.800Z,41.17
2018-04-12T16:00:05.156Z,35.29
2018-04-12T16:02:33.501Z,34.87
2018-04-12T16:05:01.877Z,40.26
2018-04-12T16:07:30.325Z,42.53
2018-04-12T16:09:58.724Z,42.72
2018-04-12T16:12:27.110Z,40.59
2018-04-12T16:14:55.483Z,42.13
2018-04-12T16:17:24.139Z,43.45
2018-04-12T16:19:52.865Z,42.92
2018-04-12T16:22:21.334Z,43.47
2018-04-12T16:24:49.587Z,42.55
2018-04-12T16:27:17.859Z,44.08
2018-04-12T16:29:46.263Z,42.27
2018-04-12T16:32:14.573Z,39.91
2018-04-12T16:34:43.132Z,36.96
2018-04-12T16:37:11.441Z,34.89
2018-04-12T16:39:39.751Z,35.90
2018-04-12T16:42:08.286Z,36.91
2018-04-12T16:44:37.369Z,37.46
2018-04-12T16:47:05.756Z,37.92
2018-04-12T16:49:34.110Z,31.37
2018-04-12T16:52:02.546Z,28.85
2018-04-12T16:54:31.293Z,25.12
2018-04-12T16:56:59.810Z,23.79
2018-04-12T16:59:28.353Z,24.42
2018-04-12T17:01:57.071Z,23.36
2018-04-12T17:04:25.391Z,23.58
2018-04-12T17:06:53.902Z,23.15
2018-04-12T17:09:22.184Z,23.09
2018-04-12T17:11:50.525Z,22.55
2018-04-12T17:14:19.687Z,20.27
2018-04-12T17:16:48.008Z,19.76
2018-04-12T17:19:16.306Z,20.04
2018-04-12T17:21:44.635Z,19.92
2018-04-12T17:24:13.034Z,19.52
2018-04-12T17:26:41.531Z,19.92
2018-04-12T17:29:09.986Z,20.81
2018-04-12T17:31:38.472Z,21.00
2018-04-12T17:34:06.739Z,20.68
2018-04-12T17:36:35.036Z,20.79
2018-04-12T17:39:04.056Z,22.28
2018-04-12T17:41:32.550Z,21.69
2018-04-12T17:44:00.879Z,30.69
2018-04-12T17:46:29.213Z,34.68
2018-04-12T17:48:57.459Z,44.43
2018-04-12T17:51:26.393Z,46.04
2018-04-12T17:53:54.629Z,47.29
2018-04-12T17:56:23.660Z,48.68
2018-04-12T17:58:51.914Z,49.47
2018-04-12T18:01:20.187Z,49.99
2018-04-12T18:03:48.536Z,50.89
2018-04-12T18:06:16.817Z,51.18
2018-04-12T18:08:45.245Z,51.54
2018-04-12T18:11:13.883Z,52.94
2018-04-12T18:13:43.120Z,53.54
2018-04-12T18:16:12.792Z,53.57
2018-04-12T18:18:41.189Z,54.00
2018-04-12T18:21:10.533Z,54.85
2018-04-12T18:23:38.998Z,54.59
2018-04-12T18:26:07.261Z,54.98
2018-04-12T18:28:35.567Z,56.24
2018-04-12T18:31:04.640Z,56.24
2018-04-12T18:33:32.917Z,56.17
2018-04-12T18:36:01.220Z,56.00
2018-04-12T18:38:30.237Z,56.52
2018-04-12T18:40:59.283Z,56.98
2018-04-12T18:43:28.326Z,57.19
2018-04-12T18:45:56.599Z,57.01
2018-04-12T18:48:24.862Z,57.74
2018-04-12T18:50:53.133Z,58.70
2018-04-12T18:53:21.392Z,58.70
2018-04-12T18:55:49.655Z,58.94
2018-04-12T18:58:17.974Z,58.65
2018-04-12T19:00:46.237Z,58.37
2018-04-12T19:03:15.268Z,59.30
2018-04-12T19:05:43.564Z,59.49
2018-04-12T19:08:11.824Z,60.69
2018-04-12T19:10:40.108Z,60.97
2018-04-12T19:13:09.186Z,61.28
2018-04-12T19:15:37.453Z,61.62
2018-04-12T19:18:06.472Z,61.65
2018-04-12T19:20:34.765Z,62.43
2018-04-12T19:23:03.022Z,61.78
2018-04-12T19:25:31.273Z,61.92
2018-04-12T19:28:00.355Z,61.31
2018-04-12T19:30:28.609Z,60.97
2018-04-12T19:32:56.883Z,61.11
2018-04-12T19:35:25.170Z,61.79
2018-04-12T19:37:53.470Z,62.73
2018-04-12T19:40:21.725Z,62.59
2018-04-12T19:42:50.806Z,62.94
2018-04-12T19:45:19.100Z,63.45
2018-04-12T19:47:47.407Z,64.32
2018-04-12T19:50:16.831Z,64.51
2018-04-12T19:52:45.882Z,65.20
2018-04-12T19:55:14.243Z,65.25
2018-04-12T19:57:42.546Z,64.91
2018-04-12T20:00:10.837Z,65.50
2018-04-12T20:02:39.130Z,65.61
2018-04-12T20:05:07.415Z,66.25
2018-04-12T20:07:35.695Z,66.85
2018-04-12T20:10:03.957Z,66.86
2018-04-12T20:12:33.001Z,66.79
2018-04-12T20:15:01.287Z,66.83
2018-04-12T20:17:29.615Z,67.45
2018-04-12T20:19:57.870Z,67.77
2018-04-12T20:22:26.175Z,68.10
2018-04-12T20:24:54.477Z,67.48
2018-04-12T20:27:22.728Z,67.35
2018-04-12T20:29:51.790Z,67.71
2018-04-12T20:32:21.394Z,67.72
2018-04-12T20:34:49.663Z,68.11
2018-04-12T20:37:17.949Z,69.12
2018-04-12T20:39:46.322Z,70.38
2018-04-12T20:42:14.603Z,70.86
2018-04-12T20:44:43.746Z,71.47
2018-04-12T20:47:12.055Z,71.20
2018-04-12T20:49:41.170Z,71.71
2018-04-12T20:52:09.459Z,71.94
2018-04-12T20:54:37.737Z,72.19
2018-04-12T20:57:06.003Z,72.24
2018-04-12T20:59:34.282Z,73.35
2018-04-12T21:02:03.672Z,74.73
2018-04-12T21:04:32.763Z,74.94
2018-04-12T21:07:01.076Z,75.66
2018-04-12T21:09:30.877Z,76.24
2018-04-12T21:11:59.111Z,76.33
2018-04-12T21:14:27.421Z,75.80
2018-04-12T21:16:55.680Z,76.68
2018-04-12T21:19:23.956Z,76.69
2018-04-12T21:21:52.986Z,77.04
2018-04-12T21:24:21.261Z,77.08
2018-04-12T21:26:49.533Z,77.13
2018-04-12T21:29:18.593Z,77.04
2018-04-12T21:31:46.872Z,77.68
2018-04-12T21:34:15.134Z,78.18
2018-04-12T21:36:43.440Z,78.22
2018-04-12T21:39:11.724Z,78.14
2018-04-12T21:41:39.983Z,77.72
2018-04-12T21:44:09.008Z,77.83
2018-04-12T21:46:38.599Z,78.58
2018-04-12T21:49:06.880Z,79.74
2018-04-12T21:51:35.138Z,79.39
2018-04-12T21:54:04.180Z,79.76
2018-04-12T21:56:32.427Z,80.19
2018-04-12T21:59:00.726Z,80.89
2018-04-12T22:01:28.973Z,81.42
2018-04-12T22:03:57.971Z,81.74
2018-04-12T22:06:26.989Z,81.63
2018-04-12T22:08:56.011Z,80.53
2018-04-12T22:11:24.271Z,81.63
2018-04-12T22:13:54.224Z,81.83
2018-04-12T22:16:22.484Z,81.63
2018-04-12T22:18:50.712Z,82.36
2018-04-12T22:21:18.966Z,82.64
2018-04-12T22:23:47.968Z,82.84
2018-04-12T22:26:16.230Z,82.34
2018-04-12T22:28:44.525Z,82.48
2018-04-12T22:31:12.800Z,83.37
2018-04-12T22:33:41.043Z,83.96
2018-04-12T22:36:09.310Z,84.37
2018-04-12T22:38:37.549Z,84.03
2018-04-12T22:41:05.812Z,84.46
2018-04-12T22:43:34.804Z,84.40
2018-04-12T22:46:03.813Z,84.08
2018-04-12T22:48:33.404Z,84.58
2018-04-12T22:51:01.674Z,84.23
2018-04-12T22:53:29.903Z,84.15
2018-04-12T22:55:58.956Z,85.92
2018-04-12T22:58:27.297Z,86.05
2018-04-12T23:00:55.540Z,85.28
2018-04-12T23:03:23.900Z,85.84
2018-04-12T23:05:52.151Z,85.61
2018-04-12T23:08:20.387Z,85.66
2018-04-12T23:10:48.639Z,85.12
2018-04-12T23:13:16.878Z,86.19
2018-04-12T23:15:45.255Z,85.82
2018-04-12T23:18:13.621Z,86.56
2018-04-12T23:20:42.648Z,86.25
2018-04-12T23:23:10.921Z,86.00
2018-04-12T23:25:39.911Z,85.40
2018-04-12T23:28:08.163Z,86.92
2018-04-12T23:30:36.382Z,86.13
2018-04-12T23:33:04.631Z,85.79
2018-04-12T23:35:32.882Z,86.08
2018-04-12T23:38:01.943Z,86.71
2018-04-12T23:40:30.180Z,86.42
2018-04-12T23:42:59.196Z,86.24
2018-04-12T23:45:27.422Z,87.08
2018-04-12T23:47:55.678Z,86.61
2018-04-12T23:50:23.917Z,86.80
2018-04-12T23:52:52.165Z,86.89
2018-04-12T23:55:20.392Z,87.10
2018-04-12T23:57:49.400Z,86.71
